createdAt,value
2018-06-17T00:00:07.011Z,16.39
2018-06-17T00:02:35.719Z,16.38
2018-06-17T00:05:05.426Z,16.35
2018-06-17T00:07:34.203Z,16.36
2018-06-17T00:10:03.098Z,16.37
2018-06-17T00:12:31.869Z,16.32
2018-06-17T00:15:00.804Z,16.28
2018-06-17T00:17:29.524Z,16.28
2018-06-17T00:19:58.235Z,16.28
2018-06-17T00:22:26.932Z,16.29
2018-06-17T00:24:55.767Z,16.27
2018-06-17T00:27:24.488Z,16.23
2018-06-17T00:29:53.197Z,16.19
2018-06-17T00:32:21.942Z,16.15
2018-06-17T00:34:50.678Z,16.13
2018-06-17T00:37:25.873Z,16.09
2018-06-17T00:39:54.684Z,16.13
2018-06-17T00:42:23.469Z,16.09
2018-06-17T00:44:52.194Z,16.07
2018-06-17T00:47:20.955Z,16.05
2018-06-17T00:49:49.847Z,16.04
2018-06-17T00:52:18.524Z,16.03
2018-06-17T00:54:47.334Z,16.07
2018-06-17T00:57:27.199Z,16.08
2018-06-17T00:59:55.971Z,16.06
2018-06-17T01:02:24.682Z,16.11
2018-06-17T01:04:53.393Z,16.14
2018-06-17T01:07:22.106Z,16.18
2018-06-17T01:09:50.853Z,16.16
2018-06-17T01:12:19.635Z,16.12
2018-06-17T01:14:48.346Z,16.10
2018-06-17T01:17:17.071Z,16.08
2018-06-17T01:19:45.798Z,16.05
2018-06-17T01:22:14.591Z,16.03
2018-06-17T01:24:43.295Z,16.03
2018-06-17T01:27:12.027Z,15.99
2018-06-17T01:29:40.791Z,15.98
2018-06-17T01:32:09.487Z,15.94
2018-06-17T01:34:38.299Z,15.95
2018-06-17T01:37:07.074Z,15.87
2018-06-17T01:39:35.806Z,15.83
2018-06-17T01:42:04.929Z,15.82
2018-06-17T01:44:33.816Z,15.79
2018-06-17T01:47:02.935Z,15.78
2018-06-17T01:49:31.672Z,15.78
2018-06-17T01:52:00.444Z,15.75
2018-06-17T01:54:29.203Z,15.72
2018-06-17T01:56:57.946Z,15.73
2018-06-17T01:59:26.658Z,15.71
2018-06-17T02:01:55.360Z,15.75
2018-06-17T02:04:29.369Z,15.81
2018-06-17T02:07:03.116Z,15.73
2018-06-17T02:09:37.110Z,15.74
2018-06-17T02:12:11.240Z,15.76
2018-06-17T02:14:45.148Z,15.73
2018-06-17T02:17:13.871Z,15.77
2018-06-17T02:19:42.618Z,15.72
2018-06-17T02:22:11.332Z,15.70
2018-06-17T02:24:40.062Z,15.65
2018-06-17T02:27:08.770Z,15.60
2018-06-17T02:29:37.475Z,15.63
2018-06-17T02:32:06.326Z,15.67
2018-06-17T02:34:35.056Z,15.65
2018-06-17T02:37:03.803Z,15.71
2018-06-17T02:39:32.639Z,15.69
2018-06-17T02:42:01.403Z,15.64
2018-06-17T02:44:30.191Z,15.61
2018-06-17T02:47:04.134Z,15.59
2018-06-17T02:49:36.033Z,15.61
2018-06-17T02:52:10.258Z,15.58
2018-06-17T02:54:46.279Z,15.58
2018-06-17T02:57:16.230Z,15.60
2018-06-17T02:59:45.693Z,15.60
2018-06-17T03:02:14.789Z,15.61
2018-06-17T03:04:43.751Z,15.61
2018-06-17T03:07:12.512Z,15.63
2018-06-17T03:09:41.315Z,15.64
2018-06-17T03:12:10.076Z,15.67
2018-06-17T03:14:38.809Z,15.68
2018-06-17T03:17:07.580Z,15.69
2018-06-17T03:19:36.275Z,15.76
2018-06-17T03:22:04.997Z,15.81
2018-06-17T03:24:38.914Z,15.75
2018-06-17T03:27:12.801Z,15.74
2018-06-17T03:29:46.640Z,15.79
2018-06-17T03:32:20.559Z,15.85
2018-06-17T03:34:54.444Z,15.85
2018-06-17T03:37:23.217Z,15.93
2018-06-17T03:39:51.910Z,15.96
2018-06-17T03:42:20.594Z,16.01
2018-06-17T03:44:49.436Z,16.12
2018-06-17T03:47:18.213Z,16.24
2018-06-17T03:49:46.952Z,16.31
2018-06-17T03:52:15.641Z,16.33
2018-06-17T03:54:44.359Z,16.32
2018-06-17T03:57:13.134Z,16.30
2018-06-17T03:59:41.834Z,16.36
2018-06-17T04:02:10.550Z,16.38
2018-06-17T04:04:44.517Z,16.42
2018-06-17T04:07:13.571Z,16.48
2018-06-17T04:09:42.383Z,16.55
2018-06-17T04:12:11.223Z,16.59
2018-06-17T04:14:40.137Z,16.70
2018-06-17T04:17:13.412Z,16.79
2018-06-17T04:19:43.037Z,16.86
2018-06-17T04:22:18.274Z,16.92
2018-06-17T04:24:46.978Z,17.04
2018-06-17T04:27:15.774Z,17.15
2018-06-17T04:29:44.538Z,17.33
2018-06-17T04:32:13.315Z,17.45
2018-06-17T04:34:42.050Z,17.56
2018-06-17T04:37:10.817Z,17.73
2018-06-17T04:39:39.530Z,17.88
2018-06-17T04:42:08.242Z,18.06
2018-06-17T04:44:38.052Z,18.24
2018-06-17T04:47:06.759Z,18.49
2018-06-17T04:49:35.614Z,18.80
2018-06-17T04:52:04.342Z,19.34
2018-06-17T04:54:33.087Z,20.11
2018-06-17T04:57:01.829Z,20.31
2018-06-17T04:59:30.576Z,20.73
2018-06-17T05:01:59.522Z,21.63
2018-06-17T05:04:28.248Z,22.18
2018-06-17T05:06:56.990Z,22.95
2018-06-17T05:09:25.731Z,23.09
2018-06-17T05:11:54.462Z,23.36
2018-06-17T05:14:23.190Z,23.80
2018-06-17T05:16:52.041Z,24.22
2018-06-17T05:19:20.746Z,24.78
2018-06-17T05:21:49.459Z,24.41
2018-06-17T05:24:18.194Z,24.74
2018-06-17T05:26:46.951Z,24.98
2018-06-17T05:29:15.647Z,25.04
2018-06-17T05:31:44.390Z,25.50
2018-06-17T05:34:13.302Z,25.39
2018-06-17T05:36:42.078Z,25.61
2018-06-17T05:39:12.677Z,25.06
2018-06-17T05:41:41.447Z,25.01
2018-06-17T05:44:10.125Z,25.39
2018-06-17T05:46:38.834Z,25.56
2018-06-17T05:49:07.719Z,25.43
2018-06-17T05:51:36.475Z,25.39
2018-06-17T05:54:05.293Z,25.42
2018-06-17T05:56:34.035Z,25.12
2018-06-17T05:59:02.826Z,24.53
2018-06-17T06:01:31.535Z,24.35
2018-06-17T06:04:00.334Z,23.86
2018-06-17T06:06:29.257Z,23.32
2018-06-17T06:08:58.010Z,22.78
2018-06-17T06:11:26.781Z,22.41
2018-06-17T06:13:55.510Z,22.31
2018-06-17T06:16:24.290Z,22.16
2018-06-17T06:18:53.408Z,22.17
2018-06-17T06:21:22.179Z,22.23
2018-06-17T06:23:50.910Z,22.09
2018-06-17T06:26:19.652Z,21.71
2018-06-17T06:28:48.381Z,21.77
2018-06-17T06:31:17.107Z,21.83
2018-06-17T06:33:46.440Z,21.52
2018-06-17T06:36:15.185Z,21.51
2018-06-17T06:38:43.966Z,21.60
2018-06-17T06:41:12.792Z,21.80
2018-06-17T06:43:41.535Z,21.68
2018-06-17T06:46:10.349Z,21.80
2018-06-17T06:48:39.061Z,21.80
2018-06-17T06:51:08.550Z,21.77
2018-06-17T06:53:37.430Z,21.99
2018-06-17T06:56:06.785Z,21.97
2018-06-17T06:58:35.554Z,22.05
2018-06-17T07:01:04.287Z,22.01
2018-06-17T07:03:44.138Z,21.84
2018-06-17T07:06:23.759Z,21.76
2018-06-17T07:09:03.974Z,21.78
2018-06-17T07:11:32.688Z,21.79
2018-06-17T07:14:01.417Z,21.76
2018-06-17T07:16:41.233Z,21.79
2018-06-17T07:19:10.009Z,21.89
2018-06-17T07:21:38.764Z,22.07
2018-06-17T07:24:07.544Z,22.04
2018-06-17T07:26:48.371Z,22.08
2018-06-17T07:29:35.687Z,22.04
2018-06-17T07:32:04.410Z,22.13
2018-06-17T07:34:33.362Z,22.19
2018-06-17T07:37:04.003Z,22.26
2018-06-17T07:40:40.927Z,22.09
2018-06-17T07:43:09.694Z,22.05
2018-06-17T07:45:38.430Z,22.16
2018-06-17T07:48:07.178Z,22.19
2018-06-17T07:50:46.952Z,22.28
2018-06-17T07:53:18.354Z,22.38
2018-06-17T07:55:47.930Z,22.42
2018-06-17T07:58:17.024Z,22.52
2018-06-17T08:00:45.756Z,22.66
2018-06-17T08:03:14.511Z,22.76
2018-06-17T08:05:44.171Z,22.81
2018-06-17T08:08:12.876Z,22.84
2018-06-17T08:10:41.615Z,22.83
2018-06-17T08:13:10.512Z,22.71
2018-06-17T08:15:39.314Z,22.81
2018-06-17T08:18:08.038Z,22.58
2018-06-17T08:20:36.798Z,22.77
2018-06-17T08:23:05.594Z,22.98
2018-06-17T08:25:34.343Z,23.05
2018-06-17T08:28:03.086Z,23.03
2018-06-17T08:30:31.903Z,23.08
2018-06-17T08:33:00.771Z,23.09
2018-06-17T08:35:29.527Z,22.99
2018-06-17T08:37:58.269Z,23.01
2018-06-17T08:40:27.002Z,23.06
2018-06-17T08:42:55.758Z,23.20
2018-06-17T08:45:24.490Z,23.09
2018-06-17T08:47:53.361Z,22.99
2018-06-17T08:50:22.077Z,22.94
2018-06-17T08:52:50.842Z,23.08
2018-06-17T08:55:19.574Z,23.23
2018-06-17T08:57:48.300Z,23.30
2018-06-17T09:00:17.166Z,23.42
2018-06-17T09:02:46.070Z,23.41
2018-06-17T09:05:14.812Z,23.59
2018-06-17T09:07:43.539Z,23.60
2018-06-17T09:10:12.323Z,23.62
2018-06-17T09:12:41.090Z,23.70
2018-06-17T09:15:09.817Z,23.80
2018-06-17T09:17:38.703Z,23.88
2018-06-17T09:20:07.442Z,23.68
2018-06-17T09:22:36.258Z,23.74
2018-06-17T09:25:05.008Z,23.82
2018-06-17T09:27:34.170Z,23.88
2018-06-17T09:30:04.293Z,23.86
2018-06-17T09:32:33.291Z,23.73
2018-06-17T09:35:02.376Z,23.83
2018-06-17T09:37:31.138Z,24.00
2018-06-17T09:39:59.978Z,24.17
2018-06-17T09:42:28.771Z,24.27
2018-06-17T09:44:57.603Z,24.41
2018-06-17T09:47:26.391Z,24.47
2018-06-17T09:49:55.121Z,24.26
2018-06-17T09:52:23.866Z,24.16
2018-06-17T09:54:52.635Z,24.08
2018-06-17T09:57:21.334Z,24.30
2018-06-17T09:59:50.108Z,24.37
2018-06-17T10:02:18.838Z,24.29
2018-06-17T10:04:47.609Z,24.50
2018-06-17T10:07:16.345Z,24.82
2018-06-17T10:11:04.631Z,24.83
2018-06-17T10:13:34.789Z,24.97
2018-06-17T10:16:03.639Z,25.04
2018-06-17T10:18:32.577Z,25.27
2018-06-17T10:21:01.354Z,25.46
2018-06-17T10:23:30.159Z,25.56
2018-06-17T10:25:58.981Z,25.61
2018-06-17T10:28:28.618Z,25.81
2018-06-17T10:30:58.299Z,25.81
2018-06-17T10:33:27.038Z,25.99
2018-06-17T10:35:55.926Z,26.11
2018-06-17T10:38:24.650Z,26.20
2018-06-17T10:40:53.434Z,26.12
2018-06-17T10:43:29.986Z,26.14
2018-06-17T10:45:58.939Z,26.07
2018-06-17T10:48:27.628Z,26.26
2018-06-17T10:50:56.507Z,25.77
2018-06-17T10:53:25.279Z,25.17
2018-06-17T10:56:00.703Z,24.95
2018-06-17T10:58:29.535Z,24.86
2018-06-17T11:00:58.387Z,24.75
2018-06-17T11:03:27.141Z,24.66
2018-06-17T11:05:55.831Z,24.57
2018-06-17T11:08:24.615Z,24.60
2018-06-17T11:10:53.798Z,24.71
2018-06-17T11:13:22.610Z,24.61
2018-06-17T11:15:51.529Z,24.50
2018-06-17T11:18:20.299Z,24.66
2018-06-17T11:20:49.051Z,24.80
2018-06-17T11:23:17.760Z,24.75
2018-06-17T11:25:46.490Z,24.75
2018-06-17T11:28:15.226Z,24.82
2018-06-17T11:30:43.958Z,24.89
2018-06-17T11:33:12.740Z,24.93
2018-06-17T11:35:41.539Z,25.01
2018-06-17T11:38:10.314Z,25.03
2018-06-17T11:40:39.226Z,25.04
2018-06-17T11:43:08.077Z,24.98
2018-06-17T11:45:36.824Z,24.94
2018-06-17T11:48:05.625Z,24.75
2018-06-17T11:50:34.399Z,24.65
2018-06-17T11:53:03.145Z,24.47
2018-06-17T11:55:31.888Z,24.45
2018-06-17T11:58:00.616Z,24.35
2018-06-17T12:00:29.276Z,24.45
2018-06-17T12:02:58.024Z,24.45
2018-06-17T12:05:26.811Z,24.45
2018-06-17T12:07:55.567Z,24.38
2018-06-17T12:10:25.166Z,24.27
2018-06-17T12:12:53.884Z,24.17
2018-06-17T12:15:22.600Z,24.06
2018-06-17T12:17:51.371Z,24.02
2018-06-17T12:20:20.101Z,23.92
2018-06-17T12:22:48.846Z,23.98
2018-06-17T12:25:17.621Z,24.02
2018-06-17T12:27:46.488Z,24.23
2018-06-17T12:30:21.658Z,24.40
2018-06-17T12:32:50.382Z,24.53
2018-06-17T12:35:19.103Z,24.50
2018-06-17T12:37:47.880Z,24.63
2018-06-17T12:40:16.605Z,24.81
2018-06-17T12:42:45.337Z,24.96
2018-06-17T12:45:14.535Z,25.15
2018-06-17T12:47:43.274Z,25.33
2018-06-17T12:50:11.989Z,25.68
2018-06-17T12:52:41.034Z,26.06
2018-06-17T12:55:09.722Z,26.38
2018-06-17T12:57:38.487Z,26.63
2018-06-17T13:00:07.806Z,26.88
2018-06-17T13:02:36.504Z,26.85
2018-06-17T13:05:05.344Z,26.92
2018-06-17T13:07:34.104Z,27.16
2018-06-17T13:10:02.884Z,27.47
2018-06-17T13:12:32.004Z,27.74
2018-06-17T13:15:01.020Z,27.53
2018-06-17T13:17:29.759Z,27.33
2018-06-17T13:19:58.491Z,27.39
2018-06-17T13:22:27.210Z,26.33
2018-06-17T13:24:55.914Z,25.83
2018-06-17T13:27:25.135Z,25.81
2018-06-17T13:29:54.206Z,25.39
2018-06-17T13:32:22.994Z,25.01
2018-06-17T13:34:51.742Z,24.96
2018-06-17T13:37:20.637Z,24.64
2018-06-17T13:39:49.453Z,23.43
2018-06-17T13:42:18.237Z,22.71
2018-06-17T13:44:46.996Z,22.08
2018-06-17T13:47:15.795Z,19.83
2018-06-17T13:49:44.521Z,19.12
2018-06-17T13:52:13.326Z,18.77
2018-06-17T13:54:42.077Z,18.56
2018-06-17T13:57:10.787Z,18.40
2018-06-17T13:59:39.574Z,18.42
2018-06-17T14:02:08.790Z,18.60
2018-06-17T14:04:37.523Z,18.66
2018-06-17T14:07:06.210Z,18.87
2018-06-17T14:09:34.921Z,19.18
2018-06-17T14:12:03.995Z,19.38
2018-06-17T14:14:32.784Z,19.67
2018-06-17T14:17:01.613Z,20.13
2018-06-17T14:19:30.427Z,20.19
2018-06-17T14:21:59.317Z,20.15
2018-06-17T14:24:28.135Z,20.21
2018-06-17T14:26:57.062Z,20.26
2018-06-17T14:29:25.747Z,20.35
2018-06-17T14:31:54.502Z,20.40
2018-06-17T14:34:23.262Z,20.49
2018-06-17T14:36:52.071Z,20.65
2018-06-17T14:39:20.930Z,20.70
2018-06-17T14:41:54.976Z,20.81
2018-06-17T14:44:29.011Z,21.13
2018-06-17T14:47:03.113Z,21.56
2018-06-17T14:49:37.252Z,21.97
2018-06-17T14:52:10.271Z,22.16
2018-06-17T14:54:39.011Z,22.33
2018-06-17T14:57:07.752Z,22.45
2018-06-17T14:59:36.592Z,22.69
2018-06-17T15:02:05.386Z,22.90
2018-06-17T15:04:34.140Z,22.88
2018-06-17T15:07:02.939Z,22.95
2018-06-17T15:09:31.684Z,22.94
2018-06-17T15:12:00.468Z,23.23
2018-06-17T15:14:29.356Z,23.29
2018-06-17T15:16:58.411Z,23.59
2018-06-17T15:19:27.122Z,23.91
2018-06-17T15:21:55.963Z,24.07
2018-06-17T15:24:24.646Z,24.06
2018-06-17T15:26:53.418Z,24.24
2018-06-17T15:29:22.219Z,24.19
2018-06-17T15:31:56.096Z,24.38
2018-06-17T15:34:30.087Z,24.22
2018-06-17T15:37:04.046Z,24.31
2018-06-17T15:39:37.833Z,24.37
2018-06-17T15:42:06.642Z,24.33
2018-06-17T15:44:35.423Z,23.99
2018-06-17T15:47:04.612Z,23.69
2018-06-17T15:49:34.176Z,23.45
2018-06-17T15:52:03.016Z,23.48
2018-06-17T15:54:31.771Z,23.52
2018-06-17T15:57:00.479Z,23.32
2018-06-17T15:59:29.236Z,22.73
2018-06-17T16:01:58.018Z,22.31
2018-06-17T16:04:26.842Z,22.06
2018-06-17T16:06:55.627Z,21.77
2018-06-17T16:09:27.350Z,21.66
2018-06-17T16:12:01.352Z,21.54
2018-06-17T16:14:35.513Z,21.48
2018-06-17T16:17:09.262Z,21.35
2018-06-17T16:19:43.304Z,21.36
2018-06-17T16:22:12.036Z,21.31
2018-06-17T16:24:40.784Z,21.05
2018-06-17T16:27:09.561Z,21.04
2018-06-17T16:29:38.291Z,21.01
2018-06-17T16:32:07.029Z,21.05
2018-06-17T16:34:35.763Z,21.08
2018-06-17T16:37:04.531Z,21.06
2018-06-17T16:39:33.362Z,21.04
2018-06-17T16:42:02.152Z,21.09
2018-06-17T16:44:30.900Z,21.06
2018-06-17T16:46:59.750Z,21.10
2018-06-17T16:49:28.566Z,21.04
2018-06-17T16:52:02.458Z,21.04
2018-06-17T16:54:36.478Z,21.00
2018-06-17T16:57:10.507Z,20.97
2018-06-17T16:59:44.405Z,20.90
2018-06-17T17:02:13.135Z,20.90
2018-06-17T17:04:41.952Z,20.88
2018-06-17T17:07:10.671Z,20.82
2018-06-17T17:09:39.436Z,20.75
2018-06-17T17:12:08.253Z,20.59
2018-06-17T17:14:37.071Z,20.49
2018-06-17T17:17:05.816Z,20.31
2018-06-17T17:19:34.643Z,20.25
2018-06-17T17:22:03.398Z,20.25
2018-06-17T17:24:32.920Z,20.33
2018-06-17T17:27:01.685Z,20.33
2018-06-17T17:29:30.452Z,20.39
2018-06-17T17:32:04.435Z,20.39
2018-06-17T17:34:38.373Z,20.40
2018-06-17T17:37:12.431Z,20.35
2018-06-17T17:39:46.612Z,20.33
2018-06-17T17:42:15.433Z,20.30
2018-06-17T17:44:49.312Z,20.28
2018-06-17T17:47:25.537Z,20.17
2018-06-17T17:49:54.727Z,20.20
2018-06-17T17:52:23.423Z,20.21
2018-06-17T17:54:52.207Z,20.16
2018-06-17T17:57:21.034Z,20.21
2018-06-17T17:59:50.013Z,20.26
2018-06-17T18:02:18.763Z,20.30
2018-06-17T18:04:47.508Z,20.26
2018-06-17T18:07:16.265Z,20.31
2018-06-17T18:09:44.951Z,20.30
2018-06-17T18:12:13.743Z,20.29
2018-06-17T18:14:42.851Z,20.34
2018-06-17T18:17:12.242Z,20.38
2018-06-17T18:19:41.000Z,20.38
2018-06-17T18:22:09.754Z,20.39
2018-06-17T18:24:38.539Z,20.32
2018-06-17T18:27:12.428Z,20.25
2018-06-17T18:29:46.341Z,20.17
2018-06-17T18:32:20.232Z,20.16
2018-06-17T18:34:54.095Z,20.06
2018-06-17T18:37:22.950Z,19.89
2018-06-17T18:39:51.682Z,19.82
2018-06-17T18:42:21.326Z,19.86
2018-06-17T18:44:50.041Z,19.89
2018-06-17T18:47:18.752Z,19.83
2018-06-17T18:49:47.544Z,19.83
2018-06-17T18:52:16.262Z,19.83
2018-06-17T18:54:45.062Z,19.77
2018-06-17T18:57:13.827Z,19.78
2018-06-17T18:59:42.552Z,19.82
2018-06-17T19:02:11.330Z,19.80
2018-06-17T19:04:40.141Z,19.73
2018-06-17T19:07:08.868Z,19.62
2018-06-17T19:09:42.769Z,19.60
2018-06-17T19:12:16.669Z,19.54
2018-06-17T19:14:51.005Z,19.50
2018-06-17T19:17:25.072Z,19.41
2018-06-17T19:19:53.780Z,19.36
2018-06-17T19:22:23.017Z,19.41
2018-06-17T19:24:51.735Z,19.38
2018-06-17T19:27:20.611Z,19.37
2018-06-17T19:29:49.339Z,19.39
2018-06-17T19:32:18.112Z,19.38
2018-06-17T19:34:46.887Z,19.33
2018-06-17T19:37:15.614Z,19.30
2018-06-17T19:39:44.396Z,19.24
2018-06-17T19:42:13.188Z,19.21
2018-06-17T19:44:41.930Z,19.20
2018-06-17T19:47:10.651Z,19.17
2018-06-17T19:49:44.639Z,19.18
2018-06-17T19:52:18.590Z,19.17
2018-06-17T19:54:52.673Z,19.11
2018-06-17T19:57:26.699Z,19.04
2018-06-17T20:00:00.475Z,19.00
2018-06-17T20:02:29.693Z,18.87
2018-06-17T20:04:58.435Z,18.77
2018-06-17T20:07:27.168Z,18.78
2018-06-17T20:09:56.000Z,18.78
2018-06-17T20:12:24.741Z,18.67
2018-06-17T20:14:53.529Z,18.62
2018-06-17T20:17:22.259Z,18.56
2018-06-17T20:19:51.075Z,18.51
2018-06-17T20:22:21.450Z,18.45
2018-06-17T20:24:50.210Z,18.37
2018-06-17T20:27:18.912Z,18.37
2018-06-17T20:29:47.617Z,18.33
2018-06-17T20:32:21.583Z,18.29
2018-06-17T20:34:55.469Z,18.24
2018-06-17T20:37:29.754Z,18.21
2018-06-17T20:40:03.583Z,18.19
2018-06-17T20:42:37.477Z,18.18
2018-06-17T20:45:06.364Z,18.19
2018-06-17T20:47:41.635Z,18.21
2018-06-17T20:50:10.434Z,18.20
2018-06-17T20:52:39.188Z,18.15
2018-06-17T20:55:07.902Z,18.14
2018-06-17T20:57:36.705Z,18.16
2018-06-17T21:00:07.279Z,18.11
2018-06-17T21:02:35.999Z,18.07
2018-06-17T21:05:04.806Z,18.14
2018-06-17T21:07:33.511Z,18.19
2018-06-17T21:10:02.252Z,18.15
2018-06-17T21:12:30.978Z,18.18
2018-06-17T21:15:04.055Z,18.15
2018-06-17T21:17:32.843Z,18.21
2018-06-17T21:20:06.825Z,18.22
2018-06-17T21:22:40.788Z,18.14
2018-06-17T21:25:14.740Z,18.13
2018-06-17T21:27:43.554Z,18.12
2018-06-17T21:30:12.510Z,18.14
2018-06-17T21:32:41.756Z,18.17
2018-06-17T21:35:11.478Z,18.17
2018-06-17T21:37:40.198Z,18.19
2018-06-17T21:40:08.949Z,18.16
2018-06-17T21:42:37.739Z,18.15
2018-06-17T21:45:06.801Z,18.13
2018-06-17T21:47:35.641Z,18.14
2018-06-17T21:50:04.752Z,18.14
2018-06-17T21:52:33.697Z,18.16
2018-06-17T21:55:02.470Z,18.15
2018-06-17T21:57:34.175Z,18.14
2018-06-17T22:00:04.947Z,18.11
2018-06-17T22:02:37.327Z,18.07
2018-06-17T22:05:06.390Z,18.07
2018-06-17T22:07:39.299Z,18.04
2018-06-17T22:10:13.215Z,18.08
2018-06-17T22:12:47.098Z,18.08
2018-06-17T22:15:21.267Z,18.10
2018-06-17T22:17:51.050Z,18.08
2018-06-17T22:20:20.070Z,18.12
2018-06-17T22:22:48.811Z,18.13
2018-06-17T22:25:17.944Z,18.14
2018-06-17T22:27:46.694Z,18.16
2018-06-17T22:30:15.445Z,18.13
2018-06-17T22:32:44.270Z,18.11
2018-06-17T22:35:13.491Z,18.08
2018-06-17T22:37:42.248Z,18.00
2018-06-17T22:40:11.051Z,18.01
2018-06-17T22:42:40.322Z,18.00
2018-06-17T22:45:09.127Z,17.98
2018-06-17T22:47:43.102Z,18.00
2018-06-17T22:50:11.814Z,17.94
2018-06-17T22:52:52.289Z,17.88
2018-06-17T22:55:21.408Z,17.89
2018-06-17T22:57:55.506Z,17.90
2018-06-17T23:00:29.466Z,17.89
2018-06-17T23:03:03.464Z,17.89
2018-06-17T23:05:37.370Z,17.85
2018-06-17T23:08:11.338Z,17.84
2018-06-17T23:10:40.101Z,17.81
2018-06-17T23:13:08.863Z,17.78
2018-06-17T23:15:37.639Z,17.75
2018-06-17T23:18:06.807Z,17.72
2018-06-17T23:20:35.557Z,17.68
2018-06-17T23:23:04.327Z,17.59
2018-06-17T23:25:33.051Z,17.53
2018-06-17T23:28:01.778Z,17.56
2018-06-17T23:30:30.645Z,17.56
2018-06-17T23:32:59.371Z,17.57
2018-06-17T23:35:28.119Z,17.53
2018-06-17T23:37:56.806Z,17.50
2018-06-17T23:40:25.532Z,17.48
2018-06-17T23:42:54.288Z,17.46
2018-06-17T23:45:22.989Z,17.47
2018-06-17T23:47:56.792Z,17.44
2018-06-17T23:50:30.723Z,17.47
2018-06-17T23:53:04.629Z,17.50
2018-06-17T23:55:38.400Z,17.49
2018-06-17T23:58:07.215Z,17.48
